Resums METAR propers

 

KSJC - San Jose, California, USA
Distància des de l'estació: NE 14km
Actualització: 23/02/2018 23:53 UTC
Seré
Seré
 Vent del ONO
Vent: ONO 22 km/h
Temperatura: 13°C
Rosada: -7°C
Humitat: 24%
Baròmetre: 1027.8 hPa
Nuvolositat: Seré
Visibilitat: 16 km
2018/02/23 23:53 KSJC 232353Z 29012KT 10SM CLR 13/M07 A3035 RMK AO2 SLP275 T01281067 10128 20083 55006 $
KNUQ - Moffett Nas/Mtn, California, USA
Distància des de l'estació: N 14km
Actualització: 23/02/2018 23:56 UTC
Seré
Seré
 Vent del NNO
Vent: NNO 17 km/h
Temperatura: 12°C
Rosada: -7°C
Humitat: 26%
Baròmetre: 1028.1 hPa
Nuvolositat: Seré
Visibilitat: 16 km
2018/02/23 23:56 KNUQ 232356Z AUTO 34009KT 10SM CLR 12/M07 A3036 RMK AO2 SLP282 T01221072 10122 20078 55005
 
KPAO - Palo Alto, California, USA
Distància des de l'estació: NNO 23km
Actualització: 23/02/2018 22:47 UTC
NO actualitzat
Seré
Seré
 Vent del NNO
Vent: NNO 19 km/h
Nuvolositat: Seré
Visibilitat: 16 km
2018/02/23 22:47 KPAO 232247Z 34010KT 10SM SKC --/M07 A3036
KRHV - San Jose/Reid, California, USA
Distància des de l'estació: ENE 19km
Actualització: 23/02/2018 23:47 UTC
Seré
Seré
 Vent del NNO
Vent: NNO 19 km/h
Temperatura: 12°C
Rosada: -6°C
Humitat: 28%
Baròmetre: 1026.8 hPa
Nuvolositat: Seré
Visibilitat: 16 km
2018/02/23 23:47 KRHV 232347Z 33010KT 10SM SKC 12/M06 A3032
 
KOAK - Oakland, California, USA
Distància des de l'estació: NNO 50km
Actualització: 23/02/2018 23:53 UTC
Seré
Seré
 Vent del ONO
Vent: ONO 30 km/h
Temperatura: 12°C
Rosada: -1°C
Humitat: 41%
Baròmetre: 1028.1 hPa
Nuvolositat: Seré
Visibilitat: 16 km
2018/02/23 23:53 KOAK 232353Z 29016KT 10SM CLR 12/M01 A3036 RMK AO2 SLP279 T01171011 10122 20089 55006
KSQL - San Carlos Airpo, California, USA
Distància des de l'estació: NO 34km
Actualització: 23/02/2018 23:47 UTC
Seré
Seré
 Vent del NNO
Vent: NNO 15 km/h
Temperatura: 12°C
Rosada: -7°C
Humitat: 26%
Baròmetre: 1028.1 hPa
Nuvolositat: Seré
Visibilitat: 16 km
2018/02/23 23:47 KSQL 232347Z 33008KT 10SM SKC 12/M07 A3036
 
KSFO - San Francisco, California, USA
Distància des de l'estació: NO 49km
Actualització: 23/02/2018 23:56 UTC
Seré
Seré
 Vent del O
Vent: O 30 km/h
Temperatura: 11°C
Rosada: -2°C
Humitat: 41%
Baròmetre: 1028.1 hPa
Nuvolositat: Seré
Visibilitat: 16 km
2018/02/23 23:56 KSFO 232356Z 27016KT 10SM CLR 11/M02 A3036 RMK AO2 SLP282 T01111022 10122 20083 55005
KE16 - San Martin, California, USA
Distància des de l'estació: ESE 43km
Actualització: 23/02/2018 23:55 UTC
Seré
Seré
 Vent del ONO
Vent: ONO 22 km/h, Ràfega: 33 km/h
Temperatura: 12°C
Rosada: -9°C
Humitat: 22%
Baròmetre: 1027.1 hPa
Nuvolositat: Seré
Visibilitat: 16 km
2018/02/23 23:55 KE16 232355Z AUTO 29012G18KT 10SM CLR 12/M09 A3033 RMK AO2
 
KWVI - Watsonville, California, USA
Distància des de l'estació: SSE 44km
Actualització: 23/02/2018 23:53 UTC
Seré
Seré
 Vent del NO
Vent: NO 11 km/h
Temperatura: 13°C
Rosada: -8°C
Humitat: 23%
Baròmetre: 1026.8 hPa
Nuvolositat: Seré
Visibilitat: 16 km
2018/02/23 23:53 KWVI 232353Z AUTO 31006KT 10SM CLR 13/M08 A3032 RMK AO2 SLP269 T01331078 10133 20089 56011
KHAF - Half Moon Bay, California, USA
Distància des de l'estació: ONO 50km
Actualització: 24/02/2018 00:15 UTC
Seré
Seré
 Vent del NNO
Vent: NNO 28 km/h
Temperatura: 9°C
Sensació: 6°C
Rosada: 0°C
Humitat: 54%
Baròmetre: 1027.8 hPa
Nuvolositat: Seré
Visibilitat: 16 km
2018/02/24 00:15 KHAF 240015Z AUTO 33015KT 10SM CLR 09/00 A3035 RMK AO2
 
KHWD - Hayward, California, USA
Distància des de l'estació: N 44km
Actualització: 23/02/2018 23:54 UTC
Seré
Seré
 Vent del NO
Vent: NO 17 km/h, Ràfega: 28 km/h
Temperatura: 12°C
Rosada: -7°C
Humitat: 26%
Baròmetre: 1027.8 hPa
Nuvolositat: Seré
Visibilitat: 16 km
2018/02/23 23:54 KHWD 232354Z 31009G15KT 270V340 10SM CLR 12/M07 A3035 RMK AO2 SLP288 T01221067 10139 20094 55005
KLVK - Livermore, California, USA
Distància des de l'estació: NNE 51km
Actualització: 23/02/2018 23:53 UTC
Seré
Seré
 Vent del N
Vent: N 13 km/h
Temperatura: 11°C
Rosada: -9°C
Humitat: 24%
Baròmetre: 1027.4 hPa
Nuvolositat: Seré
Visibilitat: 16 km
2018/02/23 23:53 KLVK 232353Z AUTO 01007KT 10SM CLR 11/M09 A3034 RMK AO2 SLP275 T01111089 10117 20072 55003